sensor_id;sensor_type;location;lat;lon;timestamp;P1;durP1;ratioP1;P2;durP2;ratioP2
72601;SDS011;60644;55.858;37.390;2022-11-02T00:01:41;7.78;;;1.58;;
72601;SDS011;60644;55.858;37.390;2022-11-02T00:04:08;5.27;;;1.30;;
72601;SDS011;60644;55.858;37.390;2022-11-02T00:06:35;6.82;;;1.27;;
72601;SDS011;60644;55.858;37.390;2022-11-02T00:09:01;7.30;;;1.80;;
72601;SDS011;60644;55.858;37.390;2022-11-02T00:11:27;7.63;;;1.90;;
72601;SDS011;60644;55.858;37.390;2022-11-02T00:13:53;6.10;;;1.40;;
72601;SDS011;60644;55.858;37.390;2022-11-02T00:16:19;6.80;;;1.75;;
72601;SDS011;60644;55.858;37.390;2022-11-02T00:18:46;6.45;;;1.50;;
72601;SDS011;60644;55.858;37.390;2022-11-02T00:21:15;7.03;;;1.50;;
72601;SDS011;60644;55.858;37.390;2022-11-02T00:23:43;7.97;;;1.60;;
72601;SDS011;60644;55.858;37.390;2022-11-02T00:26:10;6.22;;;1.60;;
72601;SDS011;60644;55.858;37.390;2022-11-02T00:28:37;6.88;;;1.98;;
72601;SDS011;60644;55.858;37.390;2022-11-02T00:31:03;6.47;;;1.70;;
72601;SDS011;60644;55.858;37.390;2022-11-02T00:33:29;9.30;;;2.10;;
72601;SDS011;60644;55.858;37.390;2022-11-02T00:35:55;8.98;;;1.92;;
72601;SDS011;60644;55.858;37.390;2022-11-02T00:38:22;6.53;;;1.60;;
72601;SDS011;60644;55.858;37.390;2022-11-02T00:40:49;9.32;;;1.90;;
72601;SDS011;60644;55.858;37.390;2022-11-02T00:43:15;8.70;;;1.87;;
72601;SDS011;60644;55.858;37.390;2022-11-02T00:45:41;8.25;;;1.70;;
72601;SDS011;60644;55.858;37.390;2022-11-02T00:48:08;7.40;;;1.48;;
72601;SDS011;60644;55.858;37.390;2022-11-02T00:50:34;6.30;;;1.55;;
72601;SDS011;60644;55.858;37.390;2022-11-02T00:53:01;7.85;;;1.55;;
72601;SDS011;60644;55.858;37.390;2022-11-02T00:55:27;6.03;;;1.00;;
72601;SDS011;60644;55.858;37.390;2022-11-02T00:57:58;5.80;;;1.20;;
72601;SDS011;60644;55.858;37.390;2022-11-02T01:00:24;7.03;;;1.35;;
72601;SDS011;60644;55.858;37.390;2022-11-02T01:02:50;5.27;;;0.90;;
72601;SDS011;60644;55.858;37.390;2022-11-02T01:05:15;5.93;;;0.40;;
72601;SDS011;60644;55.858;37.390;2022-11-02T01:07:41;5.30;;;0.90;;
72601;SDS011;60644;55.858;37.390;2022-11-02T01:10:07;4.93;;;1.00;;
72601;SDS011;60644;55.858;37.390;2022-11-02T01:12:37;5.47;;;1.08;;
72601;SDS011;60644;55.858;37.390;2022-11-02T01:15:05;5.05;;;0.90;;
72601;SDS011;60644;55.858;37.390;2022-11-02T01:17:32;4.23;;;0.70;;
72601;SDS011;60644;55.858;37.390;2022-11-02T01:19:58;6.60;;;1.20;;
72601;SDS011;60644;55.858;37.390;2022-11-02T01:22:24;5.72;;;1.48;;
72601;SDS011;60644;55.858;37.390;2022-11-02T01:24:50;6.53;;;1.10;;
72601;SDS011;60644;55.858;37.390;2022-11-02T01:27:16;5.43;;;0.80;;
72601;SDS011;60644;55.858;37.390;2022-11-02T01:29:42;6.00;;;1.30;;
72601;SDS011;60644;55.858;37.390;2022-11-02T01:32:08;9.00;;;2.03;;
72601;SDS011;60644;55.858;37.390;2022-11-02T01:34:34;6.20;;;1.67;;
72601;SDS011;60644;55.858;37.390;2022-11-02T01:36:59;6.73;;;1.50;;
72601;SDS011;60644;55.858;37.390;2022-11-02T01:39:25;5.90;;;1.40;;
72601;SDS011;60644;55.858;37.390;2022-11-02T01:41:51;6.45;;;1.50;;
72601;SDS011;60644;55.858;37.390;2022-11-02T01:44:36;7.70;;;1.45;;
72601;SDS011;60644;55.858;37.390;2022-11-02T01:47:44;6.30;;;1.40;;
72601;SDS011;60644;55.858;37.390;2022-11-02T01:49:58;9.30;;;2.05;;
72601;SDS011;60644;55.858;37.390;2022-11-02T01:52:37;7.68;;;1.85;;
72601;SDS011;60644;55.858;37.390;2022-11-02T01:57:48;6.38;;;1.67;;
72601;SDS011;60644;55.858;37.390;2022-11-02T02:00:22;7.88;;;2.08;;
72601;SDS011;60644;55.858;37.390;2022-11-02T02:02:50;8.43;;;2.10;;
72601;SDS011;60644;55.858;37.390;2022-11-02T02:05:17;7.38;;;2.22;;
72601;SDS011;60644;55.858;37.390;2022-11-02T02:07:46;9.80;;;1.97;;
72601;SDS011;60644;55.858;37.390;2022-11-02T02:10:13;5.68;;;1.73;;
72601;SDS011;60644;55.858;37.390;2022-11-02T02:12:39;6.57;;;1.80;;
72601;SDS011;60644;55.858;37.390;2022-11-02T02:15:06;5.45;;;1.30;;
72601;SDS011;60644;55.858;37.390;2022-11-02T02:20:24;5.70;;;1.30;;
72601;SDS011;60644;55.858;37.390;2022-11-02T02:30:49;7.10;;;2.45;;
72601;SDS011;60644;55.858;37.390;2022-11-02T02:36:03;8.27;;;2.10;;
72601;SDS011;60644;55.858;37.390;2022-11-02T02:38:44;6.82;;;1.80;;
72601;SDS011;60644;55.858;37.390;2022-11-02T02:41:13;11.03;;;2.23;;
72601;SDS011;60644;55.858;37.390;2022-11-02T02:43:49;6.93;;;2.03;;
72601;SDS011;60644;55.858;37.390;2022-11-02T02:46:21;7.55;;;2.03;;
72601;SDS011;60644;55.858;37.390;2022-11-02T02:48:53;7.68;;;2.10;;
72601;SDS011;60644;55.858;37.390;2022-11-02T02:51:29;8.80;;;2.15;;
72601;SDS011;60644;55.858;37.390;2022-11-02T02:53:58;6.20;;;2.03;;
72601;SDS011;60644;55.858;37.390;2022-11-02T02:56:28;11.38;;;2.40;;
72601;SDS011;60644;55.858;37.390;2022-11-02T02:59:00;6.80;;;2.30;;
72601;SDS011;60644;55.858;37.390;2022-11-02T03:01:30;6.18;;;1.98;;
72601;SDS011;60644;55.858;37.390;2022-11-02T03:03:57;7.05;;;2.33;;
72601;SDS011;60644;55.858;37.390;2022-11-02T03:06:32;6.27;;;2.17;;
72601;SDS011;60644;55.858;37.390;2022-11-02T03:12:15;7.25;;;2.13;;
72601;SDS011;60644;55.858;37.390;2022-11-02T03:22:46;9.30;;;2.42;;
72601;SDS011;60644;55.858;37.390;2022-11-02T03:33:57;8.43;;;2.38;;
72601;SDS011;60644;55.858;37.390;2022-11-02T03:36:50;10.10;;;2.50;;
72601;SDS011;60644;55.858;37.390;2022-11-02T03:42:22;11.68;;;3.28;;
72601;SDS011;60644;55.858;37.390;2022-11-02T03:44:54;7.23;;;3.03;;
72601;SDS011;60644;55.858;37.390;2022-11-02T03:47:23;8.05;;;3.10;;
72601;SDS011;60644;55.858;37.390;2022-11-02T03:49:51;10.73;;;3.20;;
72601;SDS011;60644;55.858;37.390;2022-11-02T03:52:21;8.30;;;2.90;;
72601;SDS011;60644;55.858;37.390;2022-11-02T03:54:53;10.68;;;3.28;;
72601;SDS011;60644;55.858;37.390;2022-11-02T03:57:31;8.30;;;2.90;;
72601;SDS011;60644;55.858;37.390;2022-11-02T04:00:11;7.53;;;2.45;;
72601;SDS011;60644;55.858;37.390;2022-11-02T04:02:53;9.85;;;3.00;;
72601;SDS011;60644;55.858;37.390;2022-11-02T04:05:27;8.82;;;3.33;;
72601;SDS011;60644;55.858;37.390;2022-11-02T04:07:59;9.68;;;3.65;;
72601;SDS011;60644;55.858;37.390;2022-11-02T04:10:50;8.13;;;3.00;;
72601;SDS011;60644;55.858;37.390;2022-11-02T04:13:36;9.80;;;3.15;;
72601;SDS011;60644;55.858;37.390;2022-11-02T04:16:23;8.25;;;3.10;;
72601;SDS011;60644;55.858;37.390;2022-11-02T04:18:49;10.07;;;3.08;;
72601;SDS011;60644;55.858;37.390;2022-11-02T04:21:33;10.13;;;2.87;;
72601;SDS011;60644;55.858;37.390;2022-11-02T04:24:02;11.65;;;3.38;;
72601;SDS011;60644;55.858;37.390;2022-11-02T04:26:47;8.65;;;2.95;;
72601;SDS011;60644;55.858;37.390;2022-11-02T04:29:14;11.38;;;3.97;;
72601;SDS011;60644;55.858;37.390;2022-11-02T04:31:41;9.95;;;3.33;;
72601;SDS011;60644;55.858;37.390;2022-11-02T04:34:06;10.30;;;3.13;;
72601;SDS011;60644;55.858;37.390;2022-11-02T04:36:33;8.57;;;3.08;;
72601;SDS011;60644;55.858;37.390;2022-11-02T04:38:59;8.82;;;3.70;;
72601;SDS011;60644;55.858;37.390;2022-11-02T04:41:30;8.83;;;3.37;;
72601;SDS011;60644;55.858;37.390;2022-11-02T04:44:33;7.65;;;2.67;;
72601;SDS011;60644;55.858;37.390;2022-11-02T04:47:07;8.23;;;3.03;;
72601;SDS011;60644;55.858;37.390;2022-11-02T04:49:34;10.48;;;2.88;;
72601;SDS011;60644;55.858;37.390;2022-11-02T04:52:02;7.70;;;2.63;;
72601;SDS011;60644;55.858;37.390;2022-11-02T04:54:30;7.80;;;2.40;;
72601;SDS011;60644;55.858;37.390;2022-11-02T04:56:59;10.13;;;2.75;;
72601;SDS011;60644;55.858;37.390;2022-11-02T04:59:27;8.65;;;3.10;;
72601;SDS011;60644;55.858;37.390;2022-11-02T05:01:53;8.88;;;3.08;;
72601;SDS011;60644;55.858;37.390;2022-11-02T05:04:19;8.63;;;2.77;;
72601;SDS011;60644;55.858;37.390;2022-11-02T05:06:47;8.63;;;3.40;;
72601;SDS011;60644;55.858;37.390;2022-11-02T05:09:14;9.82;;;3.15;;
72601;SDS011;60644;55.858;37.390;2022-11-02T05:11:43;7.95;;;3.20;;
72601;SDS011;60644;55.858;37.390;2022-11-02T05:14:09;9.32;;;3.30;;
72601;SDS011;60644;55.858;37.390;2022-11-02T05:16:35;8.37;;;3.30;;
72601;SDS011;60644;55.858;37.390;2022-11-02T05:19:02;10.48;;;3.40;;
72601;SDS011;60644;55.858;37.390;2022-11-02T05:21:28;12.23;;;3.55;;
72601;SDS011;60644;55.858;37.390;2022-11-02T05:23:54;14.23;;;3.92;;
72601;SDS011;60644;55.858;37.390;2022-11-02T05:26:21;8.75;;;2.80;;
72601;SDS011;60644;55.858;37.390;2022-11-02T05:28:48;6.70;;;2.43;;
72601;SDS011;60644;55.858;37.390;2022-11-02T05:31:17;6.25;;;1.77;;
72601;SDS011;60644;55.858;37.390;2022-11-02T05:33:44;7.18;;;2.05;;
72601;SDS011;60644;55.858;37.390;2022-11-02T05:36:14;7.65;;;2.22;;
72601;SDS011;60644;55.858;37.390;2022-11-02T05:38:44;5.88;;;1.00;;
72601;SDS011;60644;55.858;37.390;2022-11-02T05:41:11;6.47;;;1.60;;
72601;SDS011;60644;55.858;37.390;2022-11-02T05:43:38;7.38;;;1.50;;
72601;SDS011;60644;55.858;37.390;2022-11-02T05:46:06;6.78;;;1.67;;
72601;SDS011;60644;55.858;37.390;2022-11-02T05:48:33;9.40;;;2.90;;
72601;SDS011;60644;55.858;37.390;2022-11-02T05:51:00;5.13;;;1.55;;
72601;SDS011;60644;55.858;37.390;2022-11-02T05:53:28;8.20;;;3.60;;
72601;SDS011;60644;55.858;37.390;2022-11-02T05:55:59;11.13;;;5.20;;
72601;SDS011;60644;55.858;37.390;2022-11-02T05:58:26;10.88;;;6.30;;
72601;SDS011;60644;55.858;37.390;2022-11-02T06:00:53;10.07;;;5.25;;
72601;SDS011;60644;55.858;37.390;2022-11-02T06:03:23;12.18;;;5.55;;
72601;SDS011;60644;55.858;37.390;2022-11-02T06:05:56;12.17;;;6.77;;
72601;SDS011;60644;55.858;37.390;2022-11-02T06:08:23;15.35;;;7.43;;
72601;SDS011;60644;55.858;37.390;2022-11-02T06:10:50;14.18;;;6.78;;
72601;SDS011;60644;55.858;37.390;2022-11-02T06:13:16;13.55;;;6.13;;
72601;SDS011;60644;55.858;37.390;2022-11-02T06:15:46;10.82;;;5.55;;
72601;SDS011;60644;55.858;37.390;2022-11-02T06:18:12;12.77;;;5.73;;
72601;SDS011;60644;55.858;37.390;2022-11-02T06:20:39;11.77;;;6.00;;
72601;SDS011;60644;55.858;37.390;2022-11-02T06:23:05;17.42;;;7.00;;
72601;SDS011;60644;55.858;37.390;2022-11-02T06:25:32;16.05;;;8.63;;
72601;SDS011;60644;55.858;37.390;2022-11-02T06:27:58;17.35;;;9.02;;
72601;SDS011;60644;55.858;37.390;2022-11-02T06:30:29;18.43;;;8.90;;
72601;SDS011;60644;55.858;37.390;2022-11-02T06:32:55;18.75;;;8.77;;
72601;SDS011;60644;55.858;37.390;2022-11-02T06:35:22;19.13;;;9.85;;
72601;SDS011;60644;55.858;37.390;2022-11-02T06:37:49;18.27;;;7.78;;
72601;SDS011;60644;55.858;37.390;2022-11-02T06:40:15;17.40;;;7.72;;
72601;SDS011;60644;55.858;37.390;2022-11-02T06:42:41;15.70;;;7.10;;
72601;SDS011;60644;55.858;37.390;2022-11-02T06:45:07;18.23;;;6.70;;
72601;SDS011;60644;55.858;37.390;2022-11-02T06:47:35;15.05;;;5.18;;
72601;SDS011;60644;55.858;37.390;2022-11-02T06:50:02;14.25;;;5.40;;
72601;SDS011;60644;55.858;37.390;2022-11-02T06:52:29;12.30;;;6.10;;
72601;SDS011;60644;55.858;37.390;2022-11-02T06:54:55;12.27;;;4.90;;
72601;SDS011;60644;55.858;37.390;2022-11-02T06:57:21;13.23;;;5.35;;
72601;SDS011;60644;55.858;37.390;2022-11-02T06:59:48;12.88;;;5.70;;
72601;SDS011;60644;55.858;37.390;2022-11-02T07:02:19;13.15;;;5.80;;
72601;SDS011;60644;55.858;37.390;2022-11-02T07:04:46;11.80;;;5.20;;
72601;SDS011;60644;55.858;37.390;2022-11-02T07:07:15;11.40;;;5.07;;
72601;SDS011;60644;55.858;37.390;2022-11-02T07:09:42;13.30;;;5.20;;
72601;SDS011;60644;55.858;37.390;2022-11-02T07:12:08;11.68;;;4.60;;
72601;SDS011;60644;55.858;37.390;2022-11-02T07:14:35;9.55;;;3.80;;
72601;SDS011;60644;55.858;37.390;2022-11-02T07:17:02;9.67;;;3.87;;
72601;SDS011;60644;55.858;37.390;2022-11-02T07:19:28;10.68;;;4.53;;
72601;SDS011;60644;55.858;37.390;2022-11-02T07:21:55;11.27;;;4.80;;
72601;SDS011;60644;55.858;37.390;2022-11-02T07:24:21;10.02;;;4.43;;
72601;SDS011;60644;55.858;37.390;2022-11-02T07:26:48;12.60;;;4.35;;
72601;SDS011;60644;55.858;37.390;2022-11-02T07:29:15;10.37;;;4.03;;
72601;SDS011;60644;55.858;37.390;2022-11-02T07:31:42;11.75;;;4.05;;
72601;SDS011;60644;55.858;37.390;2022-11-02T07:34:09;12.48;;;4.00;;
72601;SDS011;60644;55.858;37.390;2022-11-02T07:36:35;8.65;;;3.22;;
72601;SDS011;60644;55.858;37.390;2022-11-02T07:39:02;9.00;;;3.28;;
72601;SDS011;60644;55.858;37.390;2022-11-02T07:41:29;11.10;;;3.57;;
72601;SDS011;60644;55.858;37.390;2022-11-02T07:43:55;11.95;;;3.50;;
72601;SDS011;60644;55.858;37.390;2022-11-02T07:46:30;8.18;;;2.47;;
72601;SDS011;60644;55.858;37.390;2022-11-02T07:48:56;6.03;;;1.58;;
72601;SDS011;60644;55.858;37.390;2022-11-02T07:51:22;12.63;;;2.63;;
72601;SDS011;60644;55.858;37.390;2022-11-02T07:53:49;8.52;;;2.78;;
72601;SDS011;60644;55.858;37.390;2022-11-02T07:56:15;8.18;;;1.70;;
72601;SDS011;60644;55.858;37.390;2022-11-02T07:58:42;9.50;;;3.10;;
72601;SDS011;60644;55.858;37.390;2022-11-02T08:01:13;8.77;;;2.80;;
72601;SDS011;60644;55.858;37.390;2022-11-02T08:03:39;9.52;;;2.55;;
72601;SDS011;60644;55.858;37.390;2022-11-02T08:06:06;10.70;;;2.58;;
72601;SDS011;60644;55.858;37.390;2022-11-02T08:08:32;9.98;;;2.65;;
72601;SDS011;60644;55.858;37.390;2022-11-02T08:11:02;8.07;;;2.60;;
72601;SDS011;60644;55.858;37.390;2022-11-02T08:13:32;8.88;;;2.95;;
72601;SDS011;60644;55.858;37.390;2022-11-02T08:15:59;8.02;;;2.50;;
72601;SDS011;60644;55.858;37.390;2022-11-02T08:18:26;7.20;;;2.08;;
72601;SDS011;60644;55.858;37.390;2022-11-02T08:20:55;10.05;;;3.28;;
72601;SDS011;60644;55.858;37.390;2022-11-02T08:23:24;9.73;;;2.03;;
72601;SDS011;60644;55.858;37.390;2022-11-02T08:25:56;7.32;;;2.33;;
72601;SDS011;60644;55.858;37.390;2022-11-02T08:28:28;10.73;;;2.67;;
72601;SDS011;60644;55.858;37.390;2022-11-02T08:30:57;13.00;;;3.42;;
72601;SDS011;60644;55.858;37.390;2022-11-02T08:33:23;8.10;;;2.42;;
72601;SDS011;60644;55.858;37.390;2022-11-02T08:35:49;10.57;;;3.20;;
72601;SDS011;60644;55.858;37.390;2022-11-02T08:38:16;8.68;;;2.53;;
72601;SDS011;60644;55.858;37.390;2022-11-02T08:40:42;10.40;;;3.28;;
72601;SDS011;60644;55.858;37.390;2022-11-02T08:43:10;9.57;;;3.13;;
72601;SDS011;60644;55.858;37.390;2022-11-02T08:45:39;7.93;;;2.90;;
72601;SDS011;60644;55.858;37.390;2022-11-02T08:48:06;9.07;;;2.43;;
72601;SDS011;60644;55.858;37.390;2022-11-02T08:50:32;7.38;;;2.03;;
72601;SDS011;60644;55.858;37.390;2022-11-02T08:52:58;8.93;;;2.45;;
72601;SDS011;60644;55.858;37.390;2022-11-02T08:55:25;8.30;;;2.20;;
72601;SDS011;60644;55.858;37.390;2022-11-02T08:57:55;8.23;;;2.33;;
72601;SDS011;60644;55.858;37.390;2022-11-02T09:00:23;8.20;;;2.40;;
72601;SDS011;60644;55.858;37.390;2022-11-02T09:03:06;8.40;;;2.40;;
72601;SDS011;60644;55.858;37.390;2022-11-02T09:05:34;8.13;;;2.00;;
72601;SDS011;60644;55.858;37.390;2022-11-02T09:08:18;9.70;;;2.90;;
72601;SDS011;60644;55.858;37.390;2022-11-02T09:10:46;10.38;;;2.90;;
72601;SDS011;60644;55.858;37.390;2022-11-02T09:13:14;10.10;;;3.17;;
72601;SDS011;60644;55.858;37.390;2022-11-02T09:15:48;11.90;;;2.92;;
72601;SDS011;60644;55.858;37.390;2022-11-02T09:18:15;11.50;;;3.25;;
72601;SDS011;60644;55.858;37.390;2022-11-02T09:20:41;9.30;;;2.33;;
72601;SDS011;60644;55.858;37.390;2022-11-02T09:23:07;8.65;;;3.08;;
72601;SDS011;60644;55.858;37.390;2022-11-02T09:25:34;9.07;;;3.13;;
72601;SDS011;60644;55.858;37.390;2022-11-02T09:28:00;8.60;;;2.92;;
72601;SDS011;60644;55.858;37.390;2022-11-02T09:30:29;8.73;;;2.80;;
72601;SDS011;60644;55.858;37.390;2022-11-02T09:32:56;8.98;;;3.40;;
72601;SDS011;60644;55.858;37.390;2022-11-02T09:35:25;9.43;;;3.00;;
72601;SDS011;60644;55.858;37.390;2022-11-02T09:37:53;10.47;;;3.30;;
72601;SDS011;60644;55.858;37.390;2022-11-02T09:40:20;10.00;;;3.25;;
72601;SDS011;60644;55.858;37.390;2022-11-02T09:45:43;7.95;;;2.92;;
72601;SDS011;60644;55.858;37.390;2022-11-02T09:48:32;8.13;;;2.72;;
72601;SDS011;60644;55.858;37.390;2022-11-02T09:51:09;9.10;;;3.30;;
72601;SDS011;60644;55.858;37.390;2022-11-02T09:56:55;8.88;;;3.38;;
72601;SDS011;60644;55.858;37.390;2022-11-02T09:59:25;11.00;;;3.97;;
72601;SDS011;60644;55.858;37.390;2022-11-02T10:02:04;10.30;;;3.35;;
72601;SDS011;60644;55.858;37.390;2022-11-02T10:04:52;12.50;;;3.20;;
72601;SDS011;60644;55.858;37.390;2022-11-02T10:16:07;10.88;;;3.88;;
72601;SDS011;60644;55.858;37.390;2022-11-02T10:18:34;11.37;;;3.70;;
72601;SDS011;60644;55.858;37.390;2022-11-02T10:21:09;10.45;;;3.83;;
72601;SDS011;60644;55.858;37.390;2022-11-02T10:26:26;11.57;;;4.13;;
72601;SDS011;60644;55.858;37.390;2022-11-02T10:28:56;8.95;;;3.35;;
72601;SDS011;60644;55.858;37.390;2022-11-02T10:31:43;14.73;;;6.00;;
72601;SDS011;60644;55.858;37.390;2022-11-02T10:34:21;15.93;;;6.25;;
72601;SDS011;60644;55.858;37.390;2022-11-02T10:44:26;7.63;;;2.13;;
72601;SDS011;60644;55.858;37.390;2022-11-02T10:52:08;9.27;;;3.70;;
72601;SDS011;60644;55.858;37.390;2022-11-02T10:54:37;10.43;;;3.92;;
72601;SDS011;60644;55.858;37.390;2022-11-02T10:57:08;15.15;;;4.10;;
72601;SDS011;60644;55.858;37.390;2022-11-02T10:59:37;11.07;;;3.30;;
72601;SDS011;60644;55.858;37.390;2022-11-02T11:04:34;10.35;;;3.90;;
72601;SDS011;60644;55.858;37.390;2022-11-02T11:09:52;9.02;;;2.10;;
72601;SDS011;60644;55.858;37.390;2022-11-02T11:12:31;7.47;;;2.77;;
72601;SDS011;60644;55.858;37.390;2022-11-02T11:15:02;8.95;;;2.70;;
72601;SDS011;60644;55.858;37.390;2022-11-02T11:17:34;9.35;;;3.22;;
72601;SDS011;60644;55.858;37.390;2022-11-02T11:20:06;7.47;;;2.17;;
72601;SDS011;60644;55.858;37.390;2022-11-02T11:25:34;11.37;;;3.80;;
72601;SDS011;60644;55.858;37.390;2022-11-02T11:28:20;10.15;;;3.95;;
72601;SDS011;60644;55.858;37.390;2022-11-02T11:30:46;10.25;;;3.92;;
72601;SDS011;60644;55.858;37.390;2022-11-02T11:33:42;11.43;;;4.00;;
72601;SDS011;60644;55.858;37.390;2022-11-02T11:36:10;12.13;;;4.97;;
72601;SDS011;60644;55.858;37.390;2022-11-02T11:39:02;11.63;;;3.53;;
72601;SDS011;60644;55.858;37.390;2022-11-02T11:41:45;8.38;;;3.05;;
72601;SDS011;60644;55.858;37.390;2022-11-02T11:44:12;11.20;;;3.30;;
72601;SDS011;60644;55.858;37.390;2022-11-02T11:46:43;9.27;;;2.60;;
72601;SDS011;60644;55.858;37.390;2022-11-02T11:49:22;6.83;;;2.13;;
72601;SDS011;60644;55.858;37.390;2022-11-02T11:51:58;12.30;;;3.40;;
72601;SDS011;60644;55.858;37.390;2022-11-02T11:54:32;11.70;;;4.05;;
72601;SDS011;60644;55.858;37.390;2022-11-02T11:57:00;11.82;;;4.03;;
72601;SDS011;60644;55.858;37.390;2022-11-02T11:59:56;10.95;;;4.30;;
72601;SDS011;60644;55.858;37.390;2022-11-02T12:02:31;14.77;;;4.67;;
72601;SDS011;60644;55.858;37.390;2022-11-02T12:16:09;8.40;;;2.33;;
72601;SDS011;60644;55.858;37.390;2022-11-02T12:19:18;8.73;;;3.08;;
72601;SDS011;60644;55.858;37.390;2022-11-02T12:41:06;13.52;;;4.97;;
72601;SDS011;60644;55.858;37.390;2022-11-02T12:43:41;13.47;;;4.93;;
72601;SDS011;60644;55.858;37.390;2022-11-02T12:49:30;14.77;;;4.38;;
72601;SDS011;60644;55.858;37.390;2022-11-02T12:54:54;9.75;;;3.45;;
72601;SDS011;60644;55.858;37.390;2022-11-02T12:57:23;10.97;;;3.10;;
72601;SDS011;60644;55.858;37.390;2022-11-02T12:59:53;11.52;;;3.47;;
72601;SDS011;60644;55.858;37.390;2022-11-02T13:02:25;9.95;;;3.33;;
72601;SDS011;60644;55.858;37.390;2022-11-02T13:04:57;11.48;;;3.38;;
72601;SDS011;60644;55.858;37.390;2022-11-02T13:07:33;7.68;;;2.72;;
72601;SDS011;60644;55.858;37.390;2022-11-02T13:10:20;12.83;;;3.53;;
72601;SDS011;60644;55.858;37.390;2022-11-02T13:12:52;10.27;;;3.63;;
72601;SDS011;60644;55.858;37.390;2022-11-02T13:15:21;10.93;;;3.53;;
72601;SDS011;60644;55.858;37.390;2022-11-02T13:17:51;9.80;;;3.20;;
72601;SDS011;60644;55.858;37.390;2022-11-02T13:20:20;8.07;;;2.45;;
72601;SDS011;60644;55.858;37.390;2022-11-02T13:22:54;14.03;;;3.53;;
72601;SDS011;60644;55.858;37.390;2022-11-02T13:25:46;7.82;;;2.58;;
72601;SDS011;60644;55.858;37.390;2022-11-02T13:30:47;15.27;;;2.72;;
72601;SDS011;60644;55.858;37.390;2022-11-02T13:33:19;7.70;;;2.00;;
72601;SDS011;60644;55.858;37.390;2022-11-02T13:35:53;9.40;;;2.10;;
72601;SDS011;60644;55.858;37.390;2022-11-02T13:49:25;8.93;;;2.63;;
72601;SDS011;60644;55.858;37.390;2022-11-02T13:51:57;9.23;;;2.65;;
72601;SDS011;60644;55.858;37.390;2022-11-02T13:54:41;8.43;;;2.22;;
72601;SDS011;60644;55.858;37.390;2022-11-02T13:58:12;9.57;;;3.15;;
72601;SDS011;60644;55.858;37.390;2022-11-02T14:00:27;12.60;;;3.43;;
72601;SDS011;60644;55.858;37.390;2022-11-02T14:03:01;11.57;;;3.15;;
72601;SDS011;60644;55.858;37.390;2022-11-02T14:05:40;11.10;;;3.75;;
72601;SDS011;60644;55.858;37.390;2022-11-02T14:11:27;9.50;;;3.30;;
72601;SDS011;60644;55.858;37.390;2022-11-02T14:26:58;12.35;;;4.32;;
72601;SDS011;60644;55.858;37.390;2022-11-02T14:40:28;12.02;;;3.45;;
72601;SDS011;60644;55.858;37.390;2022-11-02T14:43:06;9.90;;;3.33;;
72601;SDS011;60644;55.858;37.390;2022-11-02T14:48:41;12.75;;;3.03;;
72601;SDS011;60644;55.858;37.390;2022-11-02T14:51:18;8.00;;;2.90;;
72601;SDS011;60644;55.858;37.390;2022-11-02T14:53:47;6.72;;;2.30;;
72601;SDS011;60644;55.858;37.390;2022-11-02T14:56:20;7.20;;;2.70;;
72601;SDS011;60644;55.858;37.390;2022-11-02T14:58:53;9.57;;;3.03;;
72601;SDS011;60644;55.858;37.390;2022-11-02T15:01:21;6.72;;;2.05;;
72601;SDS011;60644;55.858;37.390;2022-11-02T15:03:48;6.97;;;2.05;;
72601;SDS011;60644;55.858;37.390;2022-11-02T15:06:21;6.00;;;1.77;;
72601;SDS011;60644;55.858;37.390;2022-11-02T15:08:51;9.45;;;3.03;;
72601;SDS011;60644;55.858;37.390;2022-11-02T15:17:00;9.55;;;2.58;;
72601;SDS011;60644;55.858;37.390;2022-11-02T15:19:52;8.65;;;2.78;;
72601;SDS011;60644;55.858;37.390;2022-11-02T15:22:47;10.02;;;3.50;;
72601;SDS011;60644;55.858;37.390;2022-11-02T15:25:29;7.03;;;2.63;;
72601;SDS011;60644;55.858;37.390;2022-11-02T15:30:48;9.25;;;3.00;;
72601;SDS011;60644;55.858;37.390;2022-11-02T15:33:18;10.70;;;3.50;;
72601;SDS011;60644;55.858;37.390;2022-11-02T15:36:07;9.30;;;2.70;;
72601;SDS011;60644;55.858;37.390;2022-11-02T15:38:40;9.53;;;3.17;;
72601;SDS011;60644;55.858;37.390;2022-11-02T15:44:09;8.00;;;2.65;;
72601;SDS011;60644;55.858;37.390;2022-11-02T15:54:44;7.22;;;1.45;;
72601;SDS011;60644;55.858;37.390;2022-11-02T15:57:31;6.50;;;1.75;;
72601;SDS011;60644;55.858;37.390;2022-11-02T16:02:42;7.07;;;1.90;;
72601;SDS011;60644;55.858;37.390;2022-11-02T16:05:46;6.20;;;1.53;;
72601;SDS011;60644;55.858;37.390;2022-11-02T16:08:21;7.18;;;1.92;;
72601;SDS011;60644;55.858;37.390;2022-11-02T16:10:49;8.50;;;1.38;;
72601;SDS011;60644;55.858;37.390;2022-11-02T16:13:17;4.68;;;1.33;;
72601;SDS011;60644;55.858;37.390;2022-11-02T16:15:45;7.05;;;1.80;;
72601;SDS011;60644;55.858;37.390;2022-11-02T16:18:23;8.00;;;1.80;;
72601;SDS011;60644;55.858;37.390;2022-11-02T16:20:51;6.07;;;1.48;;
72601;SDS011;60644;55.858;37.390;2022-11-02T16:23:23;6.03;;;1.98;;
72601;SDS011;60644;55.858;37.390;2022-11-02T16:25:51;6.30;;;1.80;;
72601;SDS011;60644;55.858;37.390;2022-11-02T16:28:27;4.53;;;1.00;;
72601;SDS011;60644;55.858;37.390;2022-11-02T16:31:19;5.90;;;1.50;;
72601;SDS011;60644;55.858;37.390;2022-11-02T16:33:51;6.38;;;1.45;;
72601;SDS011;60644;55.858;37.390;2022-11-02T16:36:19;6.05;;;1.50;;
72601;SDS011;60644;55.858;37.390;2022-11-02T16:38:58;7.15;;;1.45;;
72601;SDS011;60644;55.858;37.390;2022-11-02T16:41:30;8.10;;;1.42;;
72601;SDS011;60644;55.858;37.390;2022-11-02T16:44:08;5.13;;;1.90;;
72601;SDS011;60644;55.858;37.390;2022-11-02T16:46:39;5.53;;;1.50;;
72601;SDS011;60644;55.858;37.390;2022-11-02T16:51:35;8.30;;;1.77;;
72601;SDS011;60644;55.858;37.390;2022-11-02T16:56:53;7.23;;;1.90;;
72601;SDS011;60644;55.858;37.390;2022-11-02T16:59:21;4.45;;;1.45;;
72601;SDS011;60644;55.858;37.390;2022-11-02T17:01:48;6.60;;;2.08;;
72601;SDS011;60644;55.858;37.390;2022-11-02T17:04:24;6.70;;;2.03;;
72601;SDS011;60644;55.858;37.390;2022-11-02T17:06:53;7.18;;;2.00;;
72601;SDS011;60644;55.858;37.390;2022-11-02T17:09:30;6.73;;;1.77;;
72601;SDS011;60644;55.858;37.390;2022-11-02T17:12:10;7.30;;;2.25;;
72601;SDS011;60644;55.858;37.390;2022-11-02T17:14:42;5.13;;;1.63;;
72601;SDS011;60644;55.858;37.390;2022-11-02T17:19:55;5.93;;;1.65;;
72601;SDS011;60644;55.858;37.390;2022-11-02T17:27:59;7.45;;;1.40;;
72601;SDS011;60644;55.858;37.390;2022-11-02T17:33:44;7.75;;;1.60;;
72601;SDS011;60644;55.858;37.390;2022-11-02T17:35:53;5.77;;;1.30;;
72601;SDS011;60644;55.858;37.390;2022-11-02T17:38:22;8.15;;;2.35;;
72601;SDS011;60644;55.858;37.390;2022-11-02T17:40:50;6.60;;;1.77;;
72601;SDS011;60644;55.858;37.390;2022-11-02T17:43:18;8.38;;;2.33;;
72601;SDS011;60644;55.858;37.390;2022-11-02T17:45:45;6.45;;;1.92;;
72601;SDS011;60644;55.858;37.390;2022-11-02T17:48:18;7.40;;;2.03;;
72601;SDS011;60644;55.858;37.390;2022-11-02T17:50:44;7.07;;;2.20;;
72601;SDS011;60644;55.858;37.390;2022-11-02T17:53:12;8.25;;;2.38;;
72601;SDS011;60644;55.858;37.390;2022-11-02T17:55:38;6.85;;;1.92;;
72601;SDS011;60644;55.858;37.390;2022-11-02T17:58:04;6.83;;;1.90;;
72601;SDS011;60644;55.858;37.390;2022-11-02T18:00:31;6.25;;;2.10;;
72601;SDS011;60644;55.858;37.390;2022-11-02T18:02:58;6.53;;;1.77;;
72601;SDS011;60644;55.858;37.390;2022-11-02T18:05:29;8.18;;;2.40;;
72601;SDS011;60644;55.858;37.390;2022-11-02T18:08:00;6.32;;;1.85;;
72601;SDS011;60644;55.858;37.390;2022-11-02T18:10:27;4.63;;;1.40;;